createdAt,value
2019-04-30T00:00:34.726Z,819.10
2019-04-30T00:01:14.728Z,820.40
2019-04-30T00:01:43.122Z,825.40
2019-04-30T00:02:18.564Z,840.00
2019-04-30T00:02:55.169Z,848.70
2019-04-30T00:03:29.013Z,860.20
2019-04-30T00:04:05.765Z,834.60
2019-04-30T00:04:40.466Z,829.30
2019-04-30T00:05:18.799Z,830.20
2019-04-30T00:05:53.892Z,824.90
2019-04-30T00:06:27.404Z,817.00
2019-04-30T00:07:01.343Z,819.70
2019-04-30T00:07:38.224Z,834.40
2019-04-30T00:08:12.230Z,835.10
2019-04-30T00:08:47.481Z,842.70
2019-04-30T00:09:24.944Z,844.40
2019-04-30T00:09:58.492Z,823.00
2019-04-30T00:10:37.018Z,845.40
2019-04-30T00:11:10.772Z,847.30
2019-04-30T00:11:45.921Z,868.40
2019-04-30T00:12:19.604Z,854.10
2019-04-30T00:12:55.465Z,824.90
2019-04-30T00:13:30.308Z,834.00
2019-04-30T00:14:05.847Z,849.50
2019-04-30T00:14:41.372Z,851.20
2019-04-30T00:15:19.543Z,869.60
2019-04-30T00:15:52.817Z,868.70
2019-04-30T00:16:31.007Z,864.50
2019-04-30T00:17:02.416Z,839.70
2019-04-30T00:17:37.730Z,836.20
2019-04-30T00:18:15.421Z,855.90
2019-04-30T00:18:58.165Z,883.20
2019-04-30T00:19:25.960Z,884.60
2019-04-30T00:20:00.078Z,870.40
2019-04-30T00:20:38.549Z,893.20
2019-04-30T00:21:14.411Z,894.80
2019-04-30T00:21:48.261Z,861.90
2019-04-30T00:22:31.008Z,869.30
2019-04-30T00:22:56.128Z,870.50
2019-04-30T00:23:31.655Z,873.50
2019-04-30T00:24:10.220Z,893.30
2019-04-30T00:24:46.810Z,897.20
2019-04-30T00:25:19.607Z,902.20
2019-04-30T00:25:53.434Z,872.50
2019-04-30T00:26:28.912Z,871.00
2019-04-30T00:27:05.137Z,866.30
2019-04-30T00:27:39.817Z,871.40
2019-04-30T00:28:15.491Z,905.20
2019-04-30T00:28:50.305Z,889.60
2019-04-30T00:29:30.475Z,893.80
2019-04-30T00:30:07.286Z,879.80
2019-04-30T00:30:39.244Z,869.90
2019-04-30T00:31:12.355Z,883.10
2019-04-30T00:31:47.678Z,907.20
2019-04-30T00:32:22.871Z,914.30
2019-04-30T00:32:58.181Z,910.70
2019-04-30T00:33:35.233Z,880.30
2019-04-30T00:34:08.892Z,889.50
2019-04-30T00:34:45.505Z,897.60
2019-04-30T00:35:19.734Z,883.90
2019-04-30T00:35:57.882Z,875.70
2019-04-30T00:36:34.166Z,875.10
2019-04-30T00:37:07.397Z,883.80
2019-04-30T00:37:41.124Z,900.90
2019-04-30T00:38:16.330Z,884.00
2019-04-30T00:38:51.461Z,876.00
2019-04-30T00:39:27.276Z,877.20
2019-04-30T00:40:02.066Z,881.10
2019-04-30T00:40:37.645Z,894.10
2019-04-30T00:41:12.862Z,874.20
2019-04-30T00:41:48.350Z,872.10
2019-04-30T00:42:24.149Z,896.20
2019-04-30T00:43:00.244Z,883.40
2019-04-30T00:43:37.384Z,866.60
2019-04-30T00:44:09.526Z,853.00
2019-04-30T00:44:45.657Z,835.30
2019-04-30T00:45:20.385Z,830.50
2019-04-30T00:45:55.911Z,850.40
2019-04-30T00:46:31.594Z,828.30
2019-04-30T00:47:08.258Z,840.40
2019-04-30T00:47:46.611Z,850.90
2019-04-30T00:48:26.866Z,831.70
2019-04-30T00:48:53.227Z,852.40
2019-04-30T00:49:28.740Z,846.50
2019-04-30T00:50:04.961Z,849.70
2019-04-30T00:50:39.873Z,856.10
2019-04-30T00:51:20.981Z,833.60
2019-04-30T00:51:54.695Z,832.00
2019-04-30T00:52:29.558Z,839.00
2019-04-30T00:53:05.953Z,869.30
2019-04-30T00:53:36.111Z,880.10
2019-04-30T00:54:11.516Z,851.70
2019-04-30T00:54:47.232Z,825.70
2019-04-30T00:55:22.640Z,830.80
2019-04-30T00:55:57.878Z,860.10
2019-04-30T00:56:33.286Z,858.40
2019-04-30T00:57:08.679Z,845.10
2019-04-30T00:57:47.313Z,843.10
2019-04-30T00:58:24.738Z,825.30
2019-04-30T00:58:57.459Z,844.00
2019-04-30T00:59:30.063Z,836.80
2019-04-30T01:00:05.604Z,833.80
2019-04-30T01:00:40.993Z,822.80
2019-04-30T01:01:16.205Z,842.50
2019-04-30T01:01:51.384Z,839.40
2019-04-30T01:02:31.718Z,828.80
2019-04-30T01:03:07.864Z,845.80
2019-04-30T01:03:39.460Z,841.60
2019-04-30T01:04:12.730Z,839.60
2019-04-30T01:04:48.250Z,838.70
2019-04-30T01:05:25.484Z,822.90
2019-04-30T01:05:59.852Z,821.30
2019-04-30T01:06:35.060Z,826.30
2019-04-30T01:07:10.794Z,836.00
2019-04-30T01:07:50.574Z,834.20
2019-04-30T01:08:24.764Z,831.70
2019-04-30T01:08:58.317Z,830.10
2019-04-30T01:09:32.709Z,821.90
2019-04-30T01:10:07.929Z,842.20
2019-04-30T01:10:43.266Z,848.10
2019-04-30T01:11:18.849Z,836.30
2019-04-30T01:11:55.294Z,838.20
2019-04-30T01:12:35.914Z,861.00
2019-04-30T01:13:08.001Z,845.90
2019-04-30T01:13:45.650Z,837.80
2019-04-30T01:14:15.603Z,857.80
2019-04-30T01:14:50.976Z,848.50
2019-04-30T01:15:26.226Z,851.70
2019-04-30T01:16:01.320Z,830.90
2019-04-30T01:16:36.739Z,822.20
2019-04-30T01:17:12.466Z,843.30
2019-04-30T01:17:51.022Z,835.10
2019-04-30T01:18:23.605Z,841.00
2019-04-30T01:18:58.653Z,844.20
2019-04-30T01:19:33.991Z,822.20
2019-04-30T01:20:09.521Z,841.50
2019-04-30T01:20:45.066Z,858.90
2019-04-30T01:21:20.300Z,855.30
2019-04-30T01:21:55.873Z,860.80
2019-04-30T01:22:32.951Z,847.80
2019-04-30T01:23:07.986Z,815.60
2019-04-30T01:23:51.748Z,836.60
2019-04-30T01:24:19.031Z,839.40
2019-04-30T01:24:53.215Z,847.90
2019-04-30T01:25:28.858Z,848.50
2019-04-30T01:26:03.855Z,825.60
2019-04-30T01:26:39.449Z,839.20
2019-04-30T01:27:14.968Z,833.90
2019-04-30T01:27:50.385Z,839.30
2019-04-30T01:28:25.592Z,858.30
2019-04-30T01:29:02.104Z,864.50
2019-04-30T01:29:42.974Z,841.30
2019-04-30T01:30:13.261Z,817.70
2019-04-30T01:30:49.429Z,817.30
2019-04-30T01:31:23.009Z,838.50
2019-04-30T01:31:58.590Z,838.10
2019-04-30T01:32:33.804Z,828.50
2019-04-30T01:33:09.244Z,853.30
2019-04-30T01:33:44.303Z,831.60
2019-04-30T01:34:19.827Z,815.50
2019-04-30T01:34:55.103Z,841.70
2019-04-30T01:35:32.671Z,832.30
2019-04-30T01:36:09.720Z,819.30
2019-04-30T01:36:43.548Z,818.50
2019-04-30T01:37:16.379Z,838.00
2019-04-30T01:37:51.991Z,840.80
2019-04-30T01:38:28.665Z,812.80
2019-04-30T01:39:02.491Z,807.50
2019-04-30T01:39:39.034Z,835.90
2019-04-30T01:40:13.854Z,829.30
2019-04-30T01:40:51.044Z,807.90
2019-04-30T01:41:27.557Z,808.20
2019-04-30T01:42:02.804Z,807.70
2019-04-30T01:42:34.569Z,824.60
2019-04-30T01:43:09.854Z,846.90
2019-04-30T01:43:45.134Z,842.20
2019-04-30T01:44:20.327Z,840.40
2019-04-30T01:44:55.761Z,851.40
2019-04-30T01:45:31.564Z,838.60
2019-04-30T01:46:09.277Z,819.60
2019-04-30T01:46:43.314Z,808.20
2019-04-30T01:47:21.432Z,812.70
2019-04-30T01:47:53.351Z,822.60
2019-04-30T01:48:29.235Z,821.90
2019-04-30T01:49:04.000Z,847.00
2019-04-30T01:49:44.205Z,855.00
2019-04-30T01:50:14.622Z,845.00
2019-04-30T01:50:50.170Z,812.20
2019-04-30T01:51:25.379Z,821.30
2019-04-30T01:52:01.046Z,825.50
2019-04-30T01:52:36.341Z,832.90
2019-04-30T01:53:13.236Z,847.60
2019-04-30T01:53:48.428Z,832.10
2019-04-30T01:54:24.387Z,815.20
2019-04-30T01:54:59.108Z,836.70
2019-04-30T01:55:34.536Z,844.00
2019-04-30T01:56:09.966Z,844.20
2019-04-30T01:56:45.611Z,830.80
2019-04-30T01:57:20.992Z,805.80
2019-04-30T01:57:56.527Z,825.20
2019-04-30T01:58:33.354Z,848.90
2019-04-30T01:59:06.949Z,820.20
2019-04-30T01:59:42.328Z,827.60
2019-04-30T02:00:19.438Z,825.40
2019-04-30T02:00:52.595Z,828.50
2019-04-30T02:01:28.633Z,829.60
2019-04-30T02:02:03.183Z,823.90
2019-04-30T02:02:39.472Z,823.30
2019-04-30T02:03:13.997Z,825.60
2019-04-30T02:03:49.321Z,836.10
2019-04-30T02:04:24.616Z,839.80
2019-04-30T02:04:59.950Z,835.20
2019-04-30T02:05:35.232Z,839.50
2019-04-30T02:06:11.552Z,814.80
2019-04-30T02:06:45.991Z,806.70
2019-04-30T02:07:21.225Z,842.10
2019-04-30T02:07:58.397Z,827.00
2019-04-30T02:08:31.965Z,818.00
2019-04-30T02:09:08.988Z,816.20
2019-04-30T02:09:43.087Z,832.00
2019-04-30T02:10:18.611Z,844.00
2019-04-30T02:10:53.804Z,837.00
2019-04-30T02:11:29.407Z,838.30
2019-04-30T02:12:05.365Z,834.50
2019-04-30T02:12:40.456Z,813.70
2019-04-30T02:13:16.089Z,819.60
2019-04-30T02:13:51.362Z,825.60
2019-04-30T02:14:28.641Z,825.60
2019-04-30T02:15:02.096Z,807.70
2019-04-30T02:15:38.986Z,805.20
2019-04-30T02:16:13.370Z,822.90
2019-04-30T02:16:49.457Z,809.60
2019-04-30T02:17:24.398Z,788.80
2019-04-30T02:17:59.798Z,809.60
2019-04-30T02:18:35.423Z,831.00
2019-04-30T02:19:10.740Z,830.10
2019-04-30T02:19:56.444Z,807.80
2019-04-30T02:20:21.709Z,808.50
2019-04-30T02:20:56.911Z,806.80
2019-04-30T02:21:33.322Z,808.50
2019-04-30T02:22:09.433Z,810.10
2019-04-30T02:22:42.952Z,818.70
2019-04-30T02:23:19.594Z,839.70
2019-04-30T02:23:53.459Z,810.40
2019-04-30T02:24:28.889Z,802.90
2019-04-30T02:25:03.967Z,799.30
2019-04-30T02:25:39.882Z,796.20
2019-04-30T02:26:14.520Z,806.60
2019-04-30T02:26:49.826Z,813.40
2019-04-30T02:27:25.251Z,793.80
2019-04-30T02:28:00.566Z,796.70
2019-04-30T02:28:35.789Z,801.40
2019-04-30T02:29:11.203Z,795.70
2019-04-30T02:29:46.628Z,793.90
2019-04-30T02:30:21.848Z,794.60
2019-04-30T02:30:59.969Z,791.00
2019-04-30T02:31:32.790Z,814.40
2019-04-30T02:32:10.016Z,836.40
2019-04-30T02:32:43.428Z,829.50
2019-04-30T02:33:19.841Z,795.30
2019-04-30T02:33:53.847Z,810.00
2019-04-30T02:34:30.329Z,817.30
2019-04-30T02:35:04.345Z,818.70
2019-04-30T02:35:40.686Z,834.10
2019-04-30T02:36:15.291Z,825.80
2019-04-30T02:36:50.489Z,813.10
2019-04-30T02:37:25.772Z,810.20
2019-04-30T02:38:01.221Z,839.10
2019-04-30T02:38:39.478Z,835.50
2019-04-30T02:39:12.157Z,832.70
2019-04-30T02:39:50.187Z,823.90
2019-04-30T02:40:23.409Z,809.60
2019-04-30T02:40:59.492Z,802.30
2019-04-30T02:41:34.150Z,817.90
2019-04-30T02:42:09.698Z,831.30
2019-04-30T02:42:44.906Z,824.90
2019-04-30T02:43:20.484Z,802.70
2019-04-30T02:43:55.528Z,818.80
2019-04-30T02:44:30.819Z,819.40
2019-04-30T02:45:06.345Z,825.30
2019-04-30T02:45:41.728Z,818.30
2019-04-30T02:46:19.051Z,821.10
2019-04-30T02:46:52.404Z,825.30
2019-04-30T02:47:30.078Z,822.40
2019-04-30T02:48:03.336Z,820.70
2019-04-30T02:48:39.891Z,809.00
2019-04-30T02:49:15.006Z,820.40
2019-04-30T02:49:53.260Z,822.80
2019-04-30T02:50:25.542Z,830.10
2019-04-30T02:51:00.881Z,808.30
2019-04-30T02:51:36.403Z,792.90
2019-04-30T02:52:11.720Z,803.50
2019-04-30T02:52:47.025Z,800.00
2019-04-30T02:53:22.447Z,826.30
2019-04-30T02:54:00.381Z,821.40
2019-04-30T02:54:33.393Z,804.00
2019-04-30T02:55:09.490Z,800.30
2019-04-30T02:55:43.963Z,793.60
2019-04-30T02:56:20.197Z,822.20
2019-04-30T02:56:55.115Z,801.30
2019-04-30T02:57:30.835Z,802.80
2019-04-30T02:58:06.372Z,811.80
2019-04-30T02:58:41.365Z,818.60
2019-04-30T02:59:20.058Z,812.10
2019-04-30T02:59:52.268Z,793.10
2019-04-30T03:00:29.772Z,781.90
2019-04-30T03:01:03.205Z,790.60
2019-04-30T03:01:40.186Z,795.20
2019-04-30T03:02:13.933Z,796.70
2019-04-30T03:02:50.592Z,800.80
2019-04-30T03:03:25.275Z,793.50
2019-04-30T03:04:00.481Z,817.10
2019-04-30T03:04:35.867Z,821.20
2019-04-30T03:05:13.694Z,823.50
2019-04-30T03:05:49.562Z,821.70
2019-04-30T03:06:23.789Z,800.60
2019-04-30T03:06:59.680Z,776.30
2019-04-30T03:07:33.484Z,796.30
2019-04-30T03:08:09.593Z,808.60
2019-04-30T03:08:44.201Z,816.30
2019-04-30T03:09:20.214Z,805.60
2019-04-30T03:09:54.734Z,778.20
2019-04-30T03:10:30.385Z,796.30
2019-04-30T03:11:05.545Z,805.90
2019-04-30T03:11:41.110Z,804.90
2019-04-30T03:12:15.891Z,800.90
2019-04-30T03:12:51.207Z,801.70
2019-04-30T03:13:29.730Z,794.30
2019-04-30T03:14:01.964Z,787.80
2019-04-30T03:14:39.928Z,790.30
2019-04-30T03:15:12.696Z,807.10
2019-04-30T03:15:49.306Z,813.10
2019-04-30T03:16:23.455Z,775.30
2019-04-30T03:17:00.142Z,782.70
2019-04-30T03:17:34.376Z,797.90
2019-04-30T03:18:09.927Z,790.70
2019-04-30T03:18:44.599Z,786.50
2019-04-30T03:19:19.910Z,790.10
2019-04-30T03:19:55.406Z,783.70
2019-04-30T03:20:35.719Z,796.50
2019-04-30T03:21:06.233Z,807.20
2019-04-30T03:21:41.901Z,794.90
2019-04-30T03:22:20.097Z,790.90
2019-04-30T03:22:52.653Z,805.50
2019-04-30T03:23:29.346Z,787.50
2019-04-30T03:24:03.300Z,793.30
2019-04-30T03:24:42.225Z,816.20
2019-04-30T03:25:14.052Z,810.00
2019-04-30T03:25:50.107Z,771.50
2019-04-30T03:26:24.657Z,787.80
2019-04-30T03:27:00.171Z,779.60
2019-04-30T03:27:35.413Z,781.60
2019-04-30T03:28:10.810Z,771.80
2019-04-30T03:28:46.349Z,775.20
2019-04-30T03:29:24.020Z,798.80
2019-04-30T03:29:59.951Z,793.20
2019-04-30T03:30:32.660Z,801.80
2019-04-30T03:31:12.004Z,807.50
2019-04-30T03:31:45.236Z,803.30
2019-04-30T03:32:22.218Z,785.80
2019-04-30T03:32:56.973Z,793.40
2019-04-30T03:33:32.653Z,800.50
2019-04-30T03:34:05.224Z,766.80
2019-04-30T03:34:42.038Z,779.70
2019-04-30T03:35:16.188Z,777.30
2019-04-30T03:35:54.092Z,780.70
2019-04-30T03:36:26.808Z,803.60
2019-04-30T03:37:02.351Z,784.50
2019-04-30T03:37:39.524Z,796.90
2019-04-30T03:38:13.078Z,787.00
2019-04-30T03:38:50.065Z,762.60
2019-04-30T03:39:24.000Z,783.30
2019-04-30T03:40:00.684Z,782.80
2019-04-30T03:40:34.535Z,783.50
2019-04-30T03:41:09.859Z,773.50
2019-04-30T03:41:45.526Z,789.60
2019-04-30T03:42:20.824Z,780.00
2019-04-30T03:42:56.082Z,774.20
2019-04-30T03:43:31.642Z,776.00
2019-04-30T03:44:18.584Z,764.80
2019-04-30T03:44:42.178Z,758.70
2019-04-30T03:45:20.189Z,751.90
2019-04-30T03:45:52.785Z,769.70
2019-04-30T03:46:29.813Z,769.20
2019-04-30T03:47:04.134Z,777.40
2019-04-30T03:47:40.384Z,783.10
2019-04-30T03:48:15.009Z,762.50
2019-04-30T03:48:50.501Z,742.80
2019-04-30T03:49:25.527Z,753.00
2019-04-30T03:50:01.243Z,765.10
2019-04-30T03:50:49.385Z,779.30
2019-04-30T03:51:11.853Z,747.70
2019-04-30T03:51:49.689Z,739.10
2019-04-30T03:52:22.957Z,757.20
2019-04-30T03:53:00.421Z,751.00
2019-04-30T03:53:33.801Z,734.30
2019-04-30T03:54:09.998Z,736.50
2019-04-30T03:54:44.616Z,758.60
2019-04-30T03:55:20.609Z,751.50
2019-04-30T03:55:55.648Z,744.70
2019-04-30T03:56:30.983Z,727.70
2019-04-30T03:57:06.510Z,722.10
2019-04-30T03:57:41.908Z,736.60
2019-04-30T03:58:20.858Z,743.70
2019-04-30T03:58:52.648Z,744.40
2019-04-30T03:59:29.857Z,726.30
2019-04-30T04:00:03.374Z,722.00
2019-04-30T04:00:42.129Z,715.90
2019-04-30T04:01:14.404Z,724.60
2019-04-30T04:01:50.002Z,726.10
2019-04-30T04:02:25.519Z,713.00
2019-04-30T04:03:01.049Z,717.50
2019-04-30T04:03:36.243Z,732.40
2019-04-30T04:04:12.045Z,686.80
2019-04-30T04:04:49.461Z,681.20
2019-04-30T04:05:22.856Z,703.50
2019-04-30T04:05:59.463Z,703.00
2019-04-30T04:06:33.326Z,704.00
2019-04-30T04:07:10.232Z,691.20
2019-04-30T04:07:43.924Z,704.80
2019-04-30T04:08:19.533Z,691.40
2019-04-30T04:08:54.627Z,699.20
2019-04-30T04:09:30.232Z,709.70
2019-04-30T04:10:05.484Z,692.10
2019-04-30T04:10:40.883Z,677.00
2019-04-30T04:11:16.201Z,670.90
2019-04-30T04:11:51.827Z,664.90
2019-04-30T04:12:30.011Z,707.00
2019-04-30T04:13:02.539Z,700.60
2019-04-30T04:13:39.994Z,677.20
2019-04-30T04:14:13.148Z,681.80
2019-04-30T04:14:50.704Z,679.50
2019-04-30T04:15:24.378Z,673.80
2019-04-30T04:15:59.948Z,693.50
2019-04-30T04:16:35.126Z,689.90
2019-04-30T04:17:10.566Z,676.70
2019-04-30T04:17:46.070Z,686.20
2019-04-30T04:18:21.489Z,667.30
2019-04-30T04:18:56.681Z,670.00
2019-04-30T04:19:31.998Z,687.10
2019-04-30T04:20:10.271Z,675.30
2019-04-30T04:20:43.049Z,674.20
2019-04-30T04:21:20.441Z,684.80
2019-04-30T04:21:53.549Z,697.30
2019-04-30T04:22:30.637Z,698.30
2019-04-30T04:23:04.465Z,696.00
2019-04-30T04:23:39.880Z,681.70
2019-04-30T04:24:15.017Z,677.70
2019-04-30T04:24:50.703Z,708.20
2019-04-30T04:25:25.440Z,688.60
2019-04-30T04:26:00.841Z,685.50
2019-04-30T04:26:36.115Z,698.00
2019-04-30T04:27:11.311Z,672.70
2019-04-30T04:27:46.973Z,681.70
2019-04-30T04:28:22.368Z,662.30
2019-04-30T04:28:59.390Z,667.40
2019-04-30T04:29:33.626Z,673.20
2019-04-30T04:30:10.594Z,659.80
2019-04-30T04:30:44.547Z,645.20
2019-04-30T04:31:19.975Z,648.70
2019-04-30T04:31:55.412Z,649.70
2019-04-30T04:32:31.300Z,642.90
2019-04-30T04:33:06.154Z,636.60
2019-04-30T04:33:41.574Z,649.00
2019-04-30T04:34:19.429Z,648.60
2019-04-30T04:34:52.569Z,669.50
2019-04-30T04:35:29.856Z,667.20
2019-04-30T04:36:03.401Z,673.90
2019-04-30T04:36:42.955Z,656.10
2019-04-30T04:37:14.319Z,649.10
2019-04-30T04:37:49.915Z,640.30
2019-04-30T04:38:25.045Z,637.60
2019-04-30T04:39:00.556Z,622.40
2019-04-30T04:39:36.171Z,630.60
2019-04-30T04:40:11.652Z,622.80
2019-04-30T04:40:46.766Z,622.10
2019-04-30T04:41:22.176Z,597.30
2019-04-30T04:41:59.792Z,601.60
2019-04-30T04:42:33.211Z,609.00
2019-04-30T04:43:10.275Z,604.20
2019-04-30T04:43:43.648Z,591.00
2019-04-30T04:44:20.437Z,580.40
2019-04-30T04:44:54.501Z,578.50
2019-04-30T04:45:30.560Z,593.00
2019-04-30T04:46:05.312Z,612.80
2019-04-30T04:46:40.883Z,594.30
2019-04-30T04:47:16.518Z,583.00
2019-04-30T04:47:51.915Z,584.10
2019-04-30T04:48:29.604Z,578.50
2019-04-30T04:49:02.520Z,584.90
2019-04-30T04:49:39.762Z,579.70
2019-04-30T04:50:13.332Z,601.70
2019-04-30T04:50:50.228Z,600.30
2019-04-30T04:51:36.729Z,587.80
2019-04-30T04:51:59.275Z,585.60
2019-04-30T04:52:34.458Z,577.50
2019-04-30T04:53:11.608Z,584.60
2019-04-30T04:53:44.896Z,597.60
2019-04-30T04:54:20.479Z,605.90
2019-04-30T04:54:55.848Z,580.80
2019-04-30T04:55:31.161Z,572.50
2019-04-30T04:56:06.672Z,585.80
2019-04-30T04:56:41.898Z,577.40
2019-04-30T04:57:19.492Z,569.40
2019-04-30T04:57:52.416Z,578.30
2019-04-30T04:58:29.799Z,581.90
2019-04-30T04:59:03.232Z,568.70
2019-04-30T04:59:39.376Z,578.80
2019-04-30T05:00:13.873Z,608.60
2019-04-30T05:00:49.553Z,589.20
2019-04-30T05:01:24.788Z,573.30
2019-04-30T05:02:00.136Z,582.10
2019-04-30T05:02:35.841Z,586.20
2019-04-30T05:03:11.249Z,598.50
2019-04-30T05:03:48.816Z,597.20
2019-04-30T05:04:22.174Z,589.30
2019-04-30T05:04:59.776Z,584.30
2019-04-30T05:05:33.183Z,566.40
2019-04-30T05:06:11.469Z,575.90
2019-04-30T05:06:44.161Z,570.40
2019-04-30T05:07:19.709Z,575.00
2019-04-30T05:07:54.887Z,564.50
2019-04-30T05:08:30.327Z,578.40
2019-04-30T05:09:05.708Z,582.30
2019-04-30T05:09:41.001Z,561.90
2019-04-30T05:10:16.457Z,587.30
2019-04-30T05:10:51.824Z,577.60
2019-04-30T05:11:29.296Z,568.30
2019-04-30T05:12:02.308Z,558.60
2019-04-30T05:12:39.548Z,561.40
2019-04-30T05:13:12.841Z,548.50
2019-04-30T05:13:49.004Z,554.80
2019-04-30T05:14:23.749Z,571.70
2019-04-30T05:14:59.805Z,584.80
2019-04-30T05:15:34.477Z,585.50
2019-04-30T05:16:10.023Z,581.10
2019-04-30T05:16:45.244Z,573.70
2019-04-30T05:17:20.883Z,564.20
2019-04-30T05:17:56.661Z,567.60
2019-04-30T05:18:31.997Z,592.80
2019-04-30T05:19:08.905Z,600.50
2019-04-30T05:19:42.519Z,600.40
2019-04-30T05:20:19.505Z,581.40
2019-04-30T05:20:53.621Z,569.10
2019-04-30T05:21:41.417Z,576.40
2019-04-30T05:22:04.286Z,605.00
2019-04-30T05:22:39.684Z,610.50
2019-04-30T05:23:15.189Z,580.10
2019-04-30T05:23:50.881Z,580.30
2019-04-30T05:24:26.078Z,582.50
2019-04-30T05:25:01.847Z,580.30
2019-04-30T05:25:38.765Z,584.40
2019-04-30T05:26:12.576Z,596.10
2019-04-30T05:26:48.791Z,590.00
2019-04-30T05:27:24.044Z,580.00
2019-04-30T05:27:59.263Z,594.00
2019-04-30T05:28:34.660Z,595.60
2019-04-30T05:29:10.218Z,586.50
2019-04-30T05:29:45.421Z,592.10
2019-04-30T05:30:21.055Z,598.10
2019-04-30T05:30:56.329Z,589.40
2019-04-30T05:31:31.716Z,582.50
2019-04-30T05:32:07.330Z,588.30
2019-04-30T05:32:42.627Z,580.80
2019-04-30T05:33:18.636Z,570.50
2019-04-30T05:33:53.336Z,596.80
2019-04-30T05:34:28.846Z,594.10
2019-04-30T05:35:04.317Z,600.30
2019-04-30T05:35:39.721Z,603.70
2019-04-30T05:36:15.049Z,584.30
2019-04-30T05:36:50.681Z,606.30
2019-04-30T05:37:26.203Z,597.00
2019-04-30T05:38:01.511Z,590.90
2019-04-30T05:38:39.118Z,605.10
2019-04-30T05:39:12.021Z,603.00
2019-04-30T05:39:48.798Z,591.90
2019-04-30T05:40:22.639Z,600.60
2019-04-30T05:40:59.433Z,615.10
2019-04-30T05:41:33.168Z,605.70
2019-04-30T05:42:08.809Z,583.30
2019-04-30T05:43:04.073Z,589.00
2019-04-30T05:43:39.387Z,611.60
2019-04-30T05:44:14.558Z,625.80
2019-04-30T05:44:50.092Z,600.60
2019-04-30T05:45:25.486Z,584.70
2019-04-30T05:46:00.914Z,581.70
2019-04-30T05:46:36.233Z,582.20
2019-04-30T05:47:12.089Z,584.70
2019-04-30T05:47:50.209Z,586.60
2019-04-30T05:48:23.109Z,589.80
2019-04-30T05:48:59.424Z,601.40
2019-04-30T05:49:34.014Z,588.00
2019-04-30T05:50:09.522Z,600.10
2019-04-30T05:50:44.875Z,639.00
2019-04-30T05:51:21.335Z,624.60
2019-04-30T05:51:56.064Z,599.00
2019-04-30T05:52:31.239Z,593.20
2019-04-30T05:53:06.566Z,612.00
2019-04-30T05:53:41.869Z,615.50
2019-04-30T05:54:18.929Z,619.50
2019-04-30T05:54:52.797Z,614.10
2019-04-30T05:55:29.462Z,612.40
2019-04-30T05:56:04.052Z,607.80
2019-04-30T05:56:41.401Z,625.10
2019-04-30T05:57:15.400Z,625.30
2019-04-30T05:57:56.014Z,635.90
2019-04-30T05:58:26.015Z,632.30
2019-04-30T05:59:01.537Z,627.50
2019-04-30T05:59:38.708Z,633.80
2019-04-30T06:00:12.166Z,639.80
2019-04-30T06:00:49.758Z,637.00
2019-04-30T06:01:24.275Z,633.70
2019-04-30T06:01:59.198Z,646.20
2019-04-30T06:02:34.174Z,643.80
2019-04-30T06:03:09.546Z,643.80
2019-04-30T06:03:44.609Z,649.60
2019-04-30T06:04:19.802Z,647.00
2019-04-30T06:04:55.062Z,638.50
2019-04-30T06:05:30.439Z,658.60
2019-04-30T06:06:05.972Z,647.10
2019-04-30T06:06:41.401Z,648.20
2019-04-30T06:07:18.677Z,653.70
2019-04-30T06:07:55.260Z,643.30
2019-04-30T06:08:29.206Z,650.70
2019-04-30T06:09:06.612Z,661.80
2019-04-30T06:09:39.434Z,656.20
2019-04-30T06:10:14.747Z,673.20
2019-04-30T06:10:51.713Z,670.40
2019-04-30T06:11:25.166Z,655.40
2019-04-30T06:12:01.581Z,662.30
2019-04-30T06:12:36.965Z,641.20
2019-04-30T06:13:12.313Z,665.50
2019-04-30T06:13:49.162Z,658.20
2019-04-30T06:14:23.027Z,672.80
2019-04-30T06:14:59.000Z,682.30
2019-04-30T06:15:33.540Z,676.30
2019-04-30T06:16:08.890Z,678.40
2019-04-30T06:16:44.077Z,679.90
2019-04-30T06:17:19.697Z,672.50
2019-04-30T06:18:00.213Z,688.60
2019-04-30T06:18:30.109Z,682.00
2019-04-30T06:19:05.640Z,668.00
2019-04-30T06:19:41.096Z,684.00
2019-04-30T06:20:19.174Z,679.70
2019-04-30T06:20:52.158Z,670.70
2019-04-30T06:21:29.371Z,663.10
2019-04-30T06:22:07.801Z,660.50
2019-04-30T06:22:38.679Z,669.00
2019-04-30T06:23:13.790Z,659.80
2019-04-30T06:23:49.350Z,647.70
2019-04-30T06:24:24.722Z,663.40
2019-04-30T06:25:00.447Z,662.90
2019-04-30T06:25:52.939Z,678.70
2019-04-30T06:26:13.228Z,668.70
2019-04-30T06:26:46.691Z,663.80
2019-04-30T06:27:22.025Z,664.00
2019-04-30T06:27:58.891Z,662.80
2019-04-30T06:28:32.950Z,663.00
2019-04-30T06:29:09.210Z,676.40
2019-04-30T06:29:43.573Z,667.70
2019-04-30T06:30:19.827Z,659.60
2019-04-30T06:30:54.181Z,643.20
2019-04-30T06:31:34.870Z,667.70
2019-04-30T06:32:05.446Z,669.30
2019-04-30T06:32:40.851Z,671.30
2019-04-30T06:33:16.056Z,668.80
2019-04-30T06:33:51.432Z,645.30
2019-04-30T06:34:26.563Z,650.60
2019-04-30T06:35:01.863Z,665.20
2019-04-30T06:35:39.062Z,662.40
2019-04-30T06:36:12.839Z,648.30
2019-04-30T06:36:51.831Z,665.60
2019-04-30T06:37:24.086Z,669.80
2019-04-30T06:37:59.614Z,665.90
2019-04-30T06:38:34.895Z,673.30
2019-04-30T06:39:10.046Z,683.60
2019-04-30T06:39:45.524Z,671.10
2019-04-30T06:40:20.859Z,662.90
2019-04-30T06:40:56.059Z,674.00
2019-04-30T06:41:31.182Z,670.70
2019-04-30T06:42:10.086Z,647.60
2019-04-30T06:42:41.877Z,654.50
2019-04-30T06:43:18.955Z,661.10
2019-04-30T06:43:52.781Z,639.60
2019-04-30T06:44:36.987Z,629.20
2019-04-30T06:45:03.842Z,659.20
2019-04-30T06:45:39.333Z,659.30
2019-04-30T06:46:14.664Z,665.60
2019-04-30T06:46:49.763Z,677.80
2019-04-30T06:47:32.808Z,659.00
2019-04-30T06:48:00.888Z,655.40
2019-04-30T06:48:36.560Z,657.00
2019-04-30T06:49:11.650Z,658.10
2019-04-30T06:49:48.777Z,648.00
2019-04-30T06:50:22.680Z,633.20
2019-04-30T06:50:59.135Z,642.80
2019-04-30T06:51:33.409Z,658.60
2019-04-30T06:52:19.640Z,657.70
2019-04-30T06:52:54.198Z,669.10
2019-04-30T06:53:19.247Z,656.20
2019-04-30T06:53:54.329Z,642.40
2019-04-30T06:54:29.844Z,644.50
2019-04-30T06:55:05.433Z,660.70
2019-04-30T06:55:41.001Z,653.60
2019-04-30T06:56:16.396Z,643.40
2019-04-30T06:56:52.078Z,657.90
2019-04-30T06:57:29.403Z,665.00
2019-04-30T06:58:12.153Z,668.30
2019-04-30T06:58:41.346Z,663.20
2019-04-30T06:59:14.029Z,655.30
2019-04-30T06:59:51.373Z,652.30
2019-04-30T07:00:32.825Z,661.70
2019-04-30T07:01:00.383Z,667.00
2019-04-30T07:01:35.918Z,658.90
2019-04-30T07:02:11.232Z,655.00
2019-04-30T07:02:46.658Z,643.10
2019-04-30T07:03:21.845Z,654.20
2019-04-30T07:04:00.581Z,657.10
2019-04-30T07:04:32.470Z,658.60
2019-04-30T07:05:09.988Z,644.30
2019-04-30T07:05:43.483Z,649.00
2019-04-30T07:06:29.555Z,671.20
2019-04-30T07:07:01.357Z,652.00
2019-04-30T07:07:39.150Z,636.40
2019-04-30T07:08:12.897Z,638.40
2019-04-30T07:08:55.562Z,627.20
2019-04-30T07:09:26.708Z,622.00
2019-04-30T07:10:01.020Z,632.10
2019-04-30T07:10:33.941Z,617.50
2019-04-30T07:11:11.223Z,611.90
2019-04-30T07:11:44.637Z,628.80
2019-04-30T07:12:27.054Z,638.40
2019-04-30T07:12:55.401Z,641.40
2019-04-30T07:13:30.811Z,638.80
2019-04-30T07:14:06.016Z,640.00
2019-04-30T07:14:41.958Z,634.20
2019-04-30T07:15:16.760Z,641.30
2019-04-30T07:15:52.187Z,649.20
2019-04-30T07:16:29.659Z,636.20
2019-04-30T07:17:02.851Z,627.90
2019-04-30T07:17:40.544Z,627.80
2019-04-30T07:18:13.682Z,626.10
2019-04-30T07:18:49.175Z,633.60
2019-04-30T07:19:32.874Z,630.90
2019-04-30T07:19:59.914Z,625.50
2019-04-30T07:20:35.248Z,621.60
2019-04-30T07:21:10.423Z,628.10
2019-04-30T07:21:45.785Z,639.00
2019-04-30T07:22:36.211Z,626.50